sensor_id;sensor_type;location;lat;lon;timestamp;temperature;humidity
39045;DHT22;52192;52.002;5.956;2023-08-21T00:00:03;22.80;68.60
39045;DHT22;52192;52.002;5.956;2023-08-21T00:02:29;22.70;68.60
39045;DHT22;52192;52.002;5.956;2023-08-21T00:04:55;22.70;68.70
39045;DHT22;52192;52.002;5.956;2023-08-21T00:07:21;22.60;68.90
39045;DHT22;52192;52.002;5.956;2023-08-21T00:09:47;22.60;69.10
39045;DHT22;52192;52.002;5.956;2023-08-21T00:12:13;22.60;69.10
39045;DHT22;52192;52.002;5.956;2023-08-21T00:14:38;22.60;69.10
39045;DHT22;52192;52.002;5.956;2023-08-21T00:17:04;22.60;69.20
39045;DHT22;52192;52.002;5.956;2023-08-21T00:19:30;22.60;69.20
39045;DHT22;52192;52.002;5.956;2023-08-21T00:21:56;22.60;69.20
39045;DHT22;52192;52.002;5.956;2023-08-21T00:24:21;22.50;69.20
39045;DHT22;52192;52.002;5.956;2023-08-21T00:26:47;22.50;69.20
39045;DHT22;52192;52.002;5.956;2023-08-21T00:29:13;22.50;69.30
39045;DHT22;52192;52.002;5.956;2023-08-21T00:31:38;22.50;69.40
39045;DHT22;52192;52.002;5.956;2023-08-21T00:34:04;22.50;69.40
39045;DHT22;52192;52.002;5.956;2023-08-21T00:36:30;22.50;69.50
39045;DHT22;52192;52.002;5.956;2023-08-21T00:38:56;22.50;69.60
39045;DHT22;52192;52.002;5.956;2023-08-21T00:41:21;22.40;69.70
39045;DHT22;52192;52.002;5.956;2023-08-21T00:43:47;22.40;69.90
39045;DHT22;52192;52.002;5.956;2023-08-21T00:46:13;22.40;70.10
39045;DHT22;52192;52.002;5.956;2023-08-21T00:48:39;22.40;70.20
39045;DHT22;52192;52.002;5.956;2023-08-21T00:51:05;22.40;70.20
39045;DHT22;52192;52.002;5.956;2023-08-21T00:53:33;22.40;70.20
39045;DHT22;52192;52.002;5.956;2023-08-21T00:55:58;22.40;70.20
39045;DHT22;52192;52.002;5.956;2023-08-21T00:58:24;22.40;70.10
39045;DHT22;52192;52.002;5.956;2023-08-21T01:00:52;22.40;70.20
39045;DHT22;52192;52.002;5.956;2023-08-21T01:03:18;22.40;70.10
39045;DHT22;52192;52.002;5.956;2023-08-21T01:05:44;22.40;70.00
39045;DHT22;52192;52.002;5.956;2023-08-21T01:08:40;22.40;70.10
39045;DHT22;52192;52.002;5.956;2023-08-21T01:11:22;22.50;70.10
39045;DHT22;52192;52.002;5.956;2023-08-21T01:14:11;22.40;70.20
39045;DHT22;52192;52.002;5.956;2023-08-21T01:16:40;22.40;70.30
39045;DHT22;52192;52.002;5.956;2023-08-21T01:19:19;22.30;70.60
39045;DHT22;52192;52.002;5.956;2023-08-21T01:21:48;22.30;70.40
39045;DHT22;52192;52.002;5.956;2023-08-21T01:24:13;22.20;70.40
39045;DHT22;52192;52.002;5.956;2023-08-21T01:26:39;22.20;70.50
39045;DHT22;52192;52.002;5.956;2023-08-21T01:29:05;22.20;70.60
39045;DHT22;52192;52.002;5.956;2023-08-21T01:31:33;22.10;70.60
39045;DHT22;52192;52.002;5.956;2023-08-21T01:34:04;22.10;70.60
39045;DHT22;52192;52.002;5.956;2023-08-21T01:36:31;22.10;70.70
39045;DHT22;52192;52.002;5.956;2023-08-21T01:38:57;22.00;70.80
39045;DHT22;52192;52.002;5.956;2023-08-21T01:41:24;22.00;71.00
39045;DHT22;52192;52.002;5.956;2023-08-21T01:43:50;21.90;71.20
39045;DHT22;52192;52.002;5.956;2023-08-21T01:46:16;21.90;71.40
39045;DHT22;52192;52.002;5.956;2023-08-21T01:48:42;21.90;71.40
39045;DHT22;52192;52.002;5.956;2023-08-21T01:51:08;21.80;71.20
39045;DHT22;52192;52.002;5.956;2023-08-21T01:53:33;21.80;71.30
39045;DHT22;52192;52.002;5.956;2023-08-21T01:55:59;21.80;71.30
39045;DHT22;52192;52.002;5.956;2023-08-21T01:58:25;21.80;71.30
39045;DHT22;52192;52.002;5.956;2023-08-21T02:00:50;21.70;71.40
39045;DHT22;52192;52.002;5.956;2023-08-21T02:03:16;21.70;71.50
39045;DHT22;52192;52.002;5.956;2023-08-21T02:05:42;21.70;71.60
39045;DHT22;52192;52.002;5.956;2023-08-21T02:08:12;21.70;71.80
39045;DHT22;52192;52.002;5.956;2023-08-21T02:10:49;21.70;71.90
39045;DHT22;52192;52.002;5.956;2023-08-21T02:13:15;21.70;71.80
39045;DHT22;52192;52.002;5.956;2023-08-21T02:15:41;21.70;71.70
39045;DHT22;52192;52.002;5.956;2023-08-21T02:18:07;21.70;71.70
39045;DHT22;52192;52.002;5.956;2023-08-21T02:20:32;21.70;71.80
39045;DHT22;52192;52.002;5.956;2023-08-21T02:22:58;21.70;71.90
39045;DHT22;52192;52.002;5.956;2023-08-21T02:25:24;21.70;72.10
39045;DHT22;52192;52.002;5.956;2023-08-21T02:27:49;21.70;72.10
39045;DHT22;52192;52.002;5.956;2023-08-21T02:30:15;21.70;71.90
39045;DHT22;52192;52.002;5.956;2023-08-21T02:32:41;21.70;71.90
39045;DHT22;52192;52.002;5.956;2023-08-21T02:35:07;21.70;72.00
39045;DHT22;52192;52.002;5.956;2023-08-21T02:37:33;21.70;71.90
39045;DHT22;52192;52.002;5.956;2023-08-21T02:39:59;21.70;71.80
39045;DHT22;52192;52.002;5.956;2023-08-21T02:42:25;21.70;71.80
39045;DHT22;52192;52.002;5.956;2023-08-21T02:44:51;21.70;71.90
39045;DHT22;52192;52.002;5.956;2023-08-21T02:47:17;21.60;72.10
39045;DHT22;52192;52.002;5.956;2023-08-21T02:49:42;21.70;72.10
39045;DHT22;52192;52.002;5.956;2023-08-21T02:52:08;21.70;72.10
39045;DHT22;52192;52.002;5.956;2023-08-21T02:54:34;21.70;72.20
39045;DHT22;52192;52.002;5.956;2023-08-21T02:57:00;21.70;72.30
39045;DHT22;52192;52.002;5.956;2023-08-21T02:59:25;21.60;72.30
39045;DHT22;52192;52.002;5.956;2023-08-21T03:01:51;21.60;72.40
39045;DHT22;52192;52.002;5.956;2023-08-21T03:04:17;21.70;72.40
39045;DHT22;52192;52.002;5.956;2023-08-21T03:06:42;21.70;72.40
39045;DHT22;52192;52.002;5.956;2023-08-21T03:09:08;21.70;72.20
39045;DHT22;52192;52.002;5.956;2023-08-21T03:11:34;21.70;72.30
39045;DHT22;52192;52.002;5.956;2023-08-21T03:14:00;21.60;72.40
39045;DHT22;52192;52.002;5.956;2023-08-21T03:16:25;21.60;72.30
39045;DHT22;52192;52.002;5.956;2023-08-21T03:18:57;21.70;72.50
39045;DHT22;52192;52.002;5.956;2023-08-21T03:21:23;21.60;72.50
39045;DHT22;52192;52.002;5.956;2023-08-21T03:23:55;21.60;72.50
39045;DHT22;52192;52.002;5.956;2023-08-21T03:26:21;21.60;72.60
39045;DHT22;52192;52.002;5.956;2023-08-21T03:28:47;21.60;72.60
39045;DHT22;52192;52.002;5.956;2023-08-21T03:31:12;21.60;72.50
39045;DHT22;52192;52.002;5.956;2023-08-21T03:33:38;21.60;72.50
39045;DHT22;52192;52.002;5.956;2023-08-21T03:36:04;21.60;72.60
39045;DHT22;52192;52.002;5.956;2023-08-21T03:38:30;21.60;72.60
39045;DHT22;52192;52.002;5.956;2023-08-21T03:40:55;21.60;72.60
39045;DHT22;52192;52.002;5.956;2023-08-21T03:43:21;21.60;72.60
39045;DHT22;52192;52.002;5.956;2023-08-21T03:45:47;21.60;72.70
39045;DHT22;52192;52.002;5.956;2023-08-21T03:48:13;21.60;72.80
39045;DHT22;52192;52.002;5.956;2023-08-21T03:50:39;21.60;72.80
39045;DHT22;52192;52.002;5.956;2023-08-21T03:53:04;21.70;72.90
39045;DHT22;52192;52.002;5.956;2023-08-21T03:55:30;21.60;72.90
39045;DHT22;52192;52.002;5.956;2023-08-21T03:57:56;21.60;73.00
39045;DHT22;52192;52.002;5.956;2023-08-21T04:00:22;21.60;73.00
39045;DHT22;52192;52.002;5.956;2023-08-21T04:02:47;21.60;73.00
39045;DHT22;52192;52.002;5.956;2023-08-21T04:05:13;21.60;73.00
39045;DHT22;52192;52.002;5.956;2023-08-21T04:07:39;21.60;73.10
39045;DHT22;52192;52.002;5.956;2023-08-21T04:10:05;21.60;73.10
39045;DHT22;52192;52.002;5.956;2023-08-21T04:12:31;21.50;73.10
39045;DHT22;52192;52.002;5.956;2023-08-21T04:14:57;21.50;73.20
39045;DHT22;52192;52.002;5.956;2023-08-21T04:17:23;21.40;73.10
39045;DHT22;52192;52.002;5.956;2023-08-21T04:19:52;21.40;73.10
39045;DHT22;52192;52.002;5.956;2023-08-21T04:22:18;21.40;73.20
39045;DHT22;52192;52.002;5.956;2023-08-21T04:24:44;21.40;73.30
39045;DHT22;52192;52.002;5.956;2023-08-21T04:27:10;21.30;73.20
39045;DHT22;52192;52.002;5.956;2023-08-21T04:29:36;21.30;73.10
39045;DHT22;52192;52.002;5.956;2023-08-21T04:32:02;21.40;73.10
39045;DHT22;52192;52.002;5.956;2023-08-21T04:34:27;21.30;72.90
39045;DHT22;52192;52.002;5.956;2023-08-21T04:36:53;21.40;72.90
39045;DHT22;52192;52.002;5.956;2023-08-21T04:39:19;21.40;73.00
39045;DHT22;52192;52.002;5.956;2023-08-21T04:41:44;21.40;73.00
39045;DHT22;52192;52.002;5.956;2023-08-21T04:44:10;21.30;73.00
39045;DHT22;52192;52.002;5.956;2023-08-21T04:46:36;21.40;73.00
39045;DHT22;52192;52.002;5.956;2023-08-21T04:49:02;21.30;73.00
39045;DHT22;52192;52.002;5.956;2023-08-21T04:51:27;21.40;73.20
39045;DHT22;52192;52.002;5.956;2023-08-21T04:53:53;21.40;73.30
39045;DHT22;52192;52.002;5.956;2023-08-21T04:56:18;21.40;73.60
39045;DHT22;52192;52.002;5.956;2023-08-21T04:58:44;21.30;73.60
39045;DHT22;52192;52.002;5.956;2023-08-21T05:01:10;21.30;73.60
39045;DHT22;52192;52.002;5.956;2023-08-21T05:03:36;21.30;73.60
39045;DHT22;52192;52.002;5.956;2023-08-21T05:06:01;21.30;73.60
39045;DHT22;52192;52.002;5.956;2023-08-21T05:08:27;21.30;73.60
39045;DHT22;52192;52.002;5.956;2023-08-21T05:10:59;21.30;73.60
39045;DHT22;52192;52.002;5.956;2023-08-21T05:13:26;21.40;73.70
39045;DHT22;52192;52.002;5.956;2023-08-21T05:15:55;21.40;73.70
39045;DHT22;52192;52.002;5.956;2023-08-21T05:18:21;21.40;73.70
39045;DHT22;52192;52.002;5.956;2023-08-21T05:20:48;21.40;73.80
39045;DHT22;52192;52.002;5.956;2023-08-21T05:23:14;21.40;73.70
39045;DHT22;52192;52.002;5.956;2023-08-21T05:25:40;21.50;73.60
39045;DHT22;52192;52.002;5.956;2023-08-21T05:28:06;21.50;73.70
39045;DHT22;52192;52.002;5.956;2023-08-21T05:30:32;21.50;73.70
39045;DHT22;52192;52.002;5.956;2023-08-21T05:32:58;21.50;73.70
39045;DHT22;52192;52.002;5.956;2023-08-21T05:35:24;21.60;73.80
39045;DHT22;52192;52.002;5.956;2023-08-21T05:37:50;21.50;73.70
39045;DHT22;52192;52.002;5.956;2023-08-21T05:40:15;21.60;73.80
39045;DHT22;52192;52.002;5.956;2023-08-21T05:42:41;21.60;73.80
39045;DHT22;52192;52.002;5.956;2023-08-21T05:45:07;21.60;73.70
39045;DHT22;52192;52.002;5.956;2023-08-21T05:47:33;21.70;73.80
39045;DHT22;52192;52.002;5.956;2023-08-21T05:49:58;21.70;73.80
39045;DHT22;52192;52.002;5.956;2023-08-21T05:52:24;21.80;73.70
39045;DHT22;52192;52.002;5.956;2023-08-21T05:54:50;21.80;73.70
39045;DHT22;52192;52.002;5.956;2023-08-21T05:57:16;21.90;73.60
39045;DHT22;52192;52.002;5.956;2023-08-21T05:59:46;21.90;73.60
39045;DHT22;52192;52.002;5.956;2023-08-21T06:02:12;21.90;73.50
39045;DHT22;52192;52.002;5.956;2023-08-21T06:04:40;21.90;73.50
39045;DHT22;52192;52.002;5.956;2023-08-21T06:07:07;22.00;73.60
39045;DHT22;52192;52.002;5.956;2023-08-21T06:09:32;22.00;73.80
39045;DHT22;52192;52.002;5.956;2023-08-21T06:12:04;22.00;73.80
39045;DHT22;52192;52.002;5.956;2023-08-21T06:14:30;22.00;73.80
39045;DHT22;52192;52.002;5.956;2023-08-21T06:16:58;22.00;73.70
39045;DHT22;52192;52.002;5.956;2023-08-21T06:19:24;22.00;73.70
39045;DHT22;52192;52.002;5.956;2023-08-21T06:21:50;22.00;73.60
39045;DHT22;52192;52.002;5.956;2023-08-21T06:24:16;22.10;73.50
39045;DHT22;52192;52.002;5.956;2023-08-21T06:26:42;22.20;73.30
39045;DHT22;52192;52.002;5.956;2023-08-21T06:29:07;22.30;72.90
39045;DHT22;52192;52.002;5.956;2023-08-21T06:31:33;22.40;72.60
39045;DHT22;52192;52.002;5.956;2023-08-21T06:33:59;22.50;72.40
39045;DHT22;52192;52.002;5.956;2023-08-21T06:36:25;22.60;72.30
39045;DHT22;52192;52.002;5.956;2023-08-21T06:38:50;22.60;72.10
39045;DHT22;52192;52.002;5.956;2023-08-21T06:41:16;22.60;72.00
39045;DHT22;52192;52.002;5.956;2023-08-21T06:43:42;22.60;72.10
39045;DHT22;52192;52.002;5.956;2023-08-21T06:46:07;22.60;72.20
39045;DHT22;52192;52.002;5.956;2023-08-21T06:48:36;22.50;72.30
39045;DHT22;52192;52.002;5.956;2023-08-21T06:51:01;22.60;72.40
39045;DHT22;52192;52.002;5.956;2023-08-21T06:53:28;22.60;72.30
39045;DHT22;52192;52.002;5.956;2023-08-21T06:55:54;22.70;72.20
39045;DHT22;52192;52.002;5.956;2023-08-21T06:58:20;22.80;72.10
39045;DHT22;52192;52.002;5.956;2023-08-21T07:00:46;22.90;71.90
39045;DHT22;52192;52.002;5.956;2023-08-21T07:03:11;23.00;71.50
39045;DHT22;52192;52.002;5.956;2023-08-21T07:05:37;23.00;71.40
39045;DHT22;52192;52.002;5.956;2023-08-21T07:08:03;23.10;71.60
39045;DHT22;52192;52.002;5.956;2023-08-21T07:10:29;23.10;71.60
39045;DHT22;52192;52.002;5.956;2023-08-21T07:12:55;23.20;71.40
39045;DHT22;52192;52.002;5.956;2023-08-21T07:15:21;23.20;71.00
39045;DHT22;52192;52.002;5.956;2023-08-21T07:17:47;23.30;70.90
39045;DHT22;52192;52.002;5.956;2023-08-21T07:20:13;23.30;70.70
39045;DHT22;52192;52.002;5.956;2023-08-21T07:22:38;23.30;70.70
39045;DHT22;52192;52.002;5.956;2023-08-21T07:25:05;23.30;71.00
39045;DHT22;52192;52.002;5.956;2023-08-21T07:27:31;23.40;70.80
39045;DHT22;52192;52.002;5.956;2023-08-21T07:29:57;23.50;70.50
39045;DHT22;52192;52.002;5.956;2023-08-21T07:32:22;23.60;69.70
39045;DHT22;52192;52.002;5.956;2023-08-21T07:34:52;23.80;69.60
39045;DHT22;52192;52.002;5.956;2023-08-21T07:37:19;23.80;69.30
39045;DHT22;52192;52.002;5.956;2023-08-21T07:39:45;24.00;68.90
39045;DHT22;52192;52.002;5.956;2023-08-21T07:42:11;24.00;68.50
39045;DHT22;52192;52.002;5.956;2023-08-21T07:44:39;24.10;68.40
39045;DHT22;52192;52.002;5.956;2023-08-21T07:47:05;24.20;67.90
39045;DHT22;52192;52.002;5.956;2023-08-21T07:49:32;24.30;67.80
39045;DHT22;52192;52.002;5.956;2023-08-21T07:51:57;24.40;67.60
39045;DHT22;52192;52.002;5.956;2023-08-21T07:54:23;24.40;67.60
39045;DHT22;52192;52.002;5.956;2023-08-21T07:56:50;24.40;67.50
39045;DHT22;52192;52.002;5.956;2023-08-21T07:59:16;24.50;67.30
39045;DHT22;52192;52.002;5.956;2023-08-21T08:01:41;24.50;66.80
39045;DHT22;52192;52.002;5.956;2023-08-21T08:04:08;24.50;66.60
39045;DHT22;52192;52.002;5.956;2023-08-21T08:06:34;24.50;66.50
39045;DHT22;52192;52.002;5.956;2023-08-21T08:08:59;24.60;66.90
39045;DHT22;52192;52.002;5.956;2023-08-21T08:11:25;24.60;67.10
39045;DHT22;52192;52.002;5.956;2023-08-21T08:13:51;24.70;67.30
39045;DHT22;52192;52.002;5.956;2023-08-21T08:16:17;24.70;67.00
39045;DHT22;52192;52.002;5.956;2023-08-21T08:18:42;24.70;66.50
39045;DHT22;52192;52.002;5.956;2023-08-21T08:21:08;24.70;66.40
39045;DHT22;52192;52.002;5.956;2023-08-21T08:23:35;24.80;65.90
39045;DHT22;52192;52.002;5.956;2023-08-21T08:26:01;24.80;66.00
39045;DHT22;52192;52.002;5.956;2023-08-21T08:28:27;24.90;65.90
39045;DHT22;52192;52.002;5.956;2023-08-21T08:30:53;25.00;65.90
39045;DHT22;52192;52.002;5.956;2023-08-21T08:33:19;25.20;65.70
39045;DHT22;52192;52.002;5.956;2023-08-21T08:35:45;25.30;65.30
39045;DHT22;52192;52.002;5.956;2023-08-21T08:38:11;25.40;65.40
39045;DHT22;52192;52.002;5.956;2023-08-21T08:40:45;25.40;65.60
39045;DHT22;52192;52.002;5.956;2023-08-21T08:43:14;25.30;64.90
39045;DHT22;52192;52.002;5.956;2023-08-21T08:45:45;25.10;63.80
39045;DHT22;52192;52.002;5.956;2023-08-21T08:48:12;25.10;64.60
39045;DHT22;52192;52.002;5.956;2023-08-21T08:50:39;25.10;64.90
39045;DHT22;52192;52.002;5.956;2023-08-21T08:53:07;25.10;64.80
39045;DHT22;52192;52.002;5.956;2023-08-21T08:55:33;25.20;64.80
39045;DHT22;52192;52.002;5.956;2023-08-21T08:57:59;25.20;64.60
39045;DHT22;52192;52.002;5.956;2023-08-21T09:00:25;25.20;64.80
39045;DHT22;52192;52.002;5.956;2023-08-21T09:02:52;25.20;64.70
39045;DHT22;52192;52.002;5.956;2023-08-21T09:05:17;25.20;64.40
39045;DHT22;52192;52.002;5.956;2023-08-21T09:07:43;25.20;64.50
39045;DHT22;52192;52.002;5.956;2023-08-21T09:10:18;25.20;64.50
39045;DHT22;52192;52.002;5.956;2023-08-21T09:12:45;25.30;64.50
39045;DHT22;52192;52.002;5.956;2023-08-21T09:15:12;25.40;64.50
39045;DHT22;52192;52.002;5.956;2023-08-21T09:17:37;25.60;64.40
39045;DHT22;52192;52.002;5.956;2023-08-21T09:20:04;25.80;64.60
39045;DHT22;52192;52.002;5.956;2023-08-21T09:22:30;25.90;63.90
39045;DHT22;52192;52.002;5.956;2023-08-21T09:25:03;25.90;63.80
39045;DHT22;52192;52.002;5.956;2023-08-21T09:27:36;25.90;63.70
39045;DHT22;52192;52.002;5.956;2023-08-21T09:30:09;26.00;63.70
39045;DHT22;52192;52.002;5.956;2023-08-21T09:32:56;26.00;63.40
39045;DHT22;52192;52.002;5.956;2023-08-21T09:35:22;26.20;63.50
39045;DHT22;52192;52.002;5.956;2023-08-21T09:37:49;26.20;62.70
39045;DHT22;52192;52.002;5.956;2023-08-21T09:40:18;26.40;62.90
39045;DHT22;52192;52.002;5.956;2023-08-21T09:42:43;26.40;61.80
39045;DHT22;52192;52.002;5.956;2023-08-21T09:45:09;26.50;61.20
39045;DHT22;52192;52.002;5.956;2023-08-21T09:47:35;26.50;61.20
39045;DHT22;52192;52.002;5.956;2023-08-21T09:50:01;26.50;61.50
39045;DHT22;52192;52.002;5.956;2023-08-21T09:52:27;26.50;61.70
39045;DHT22;52192;52.002;5.956;2023-08-21T09:54:54;26.50;62.00
39045;DHT22;52192;52.002;5.956;2023-08-21T09:57:22;26.60;61.70
39045;DHT22;52192;52.002;5.956;2023-08-21T09:59:52;26.60;61.10
39045;DHT22;52192;52.002;5.956;2023-08-21T10:02:18;26.80;61.10
39045;DHT22;52192;52.002;5.956;2023-08-21T10:04:45;26.90;61.00
39045;DHT22;52192;52.002;5.956;2023-08-21T10:07:12;27.10;60.60
39045;DHT22;52192;52.002;5.956;2023-08-21T10:09:40;27.30;60.40
39045;DHT22;52192;52.002;5.956;2023-08-21T10:12:09;27.50;59.40
39045;DHT22;52192;52.002;5.956;2023-08-21T10:14:36;27.60;57.80
39045;DHT22;52192;52.002;5.956;2023-08-21T10:17:02;27.70;58.00
39045;DHT22;52192;52.002;5.956;2023-08-21T10:19:31;27.70;57.40
39045;DHT22;52192;52.002;5.956;2023-08-21T10:21:57;27.80;56.80
39045;DHT22;52192;52.002;5.956;2023-08-21T10:24:36;27.80;57.00
39045;DHT22;52192;52.002;5.956;2023-08-21T10:27:03;27.90;56.70
39045;DHT22;52192;52.002;5.956;2023-08-21T10:29:29;28.00;57.10
39045;DHT22;52192;52.002;5.956;2023-08-21T10:32:04;28.10;56.20
39045;DHT22;52192;52.002;5.956;2023-08-21T10:34:37;28.30;56.70
39045;DHT22;52192;52.002;5.956;2023-08-21T10:39:29;28.60;56.40
39045;DHT22;52192;52.002;5.956;2023-08-21T10:42:07;28.70;54.40
39045;DHT22;52192;52.002;5.956;2023-08-21T10:49:54;29.00;52.80
39045;DHT22;52192;52.002;5.956;2023-08-21T10:54:59;28.70;53.00
39045;DHT22;52192;52.002;5.956;2023-08-21T10:57:26;28.50;52.70
39045;DHT22;52192;52.002;5.956;2023-08-21T10:59:54;28.30;53.80
39045;DHT22;52192;52.002;5.956;2023-08-21T11:02:21;28.20;52.90
39045;DHT22;52192;52.002;5.956;2023-08-21T11:04:48;28.20;52.30
39045;DHT22;52192;52.002;5.956;2023-08-21T11:07:14;28.00;52.60
39045;DHT22;52192;52.002;5.956;2023-08-21T11:09:40;28.00;53.30
39045;DHT22;52192;52.002;5.956;2023-08-21T11:12:11;28.10;53.40
39045;DHT22;52192;52.002;5.956;2023-08-21T11:14:37;28.40;52.40
39045;DHT22;52192;52.002;5.956;2023-08-21T11:17:04;28.60;52.30
39045;DHT22;52192;52.002;5.956;2023-08-21T11:19:33;28.90;52.50
39045;DHT22;52192;52.002;5.956;2023-08-21T11:22:03;29.10;52.10
39045;DHT22;52192;52.002;5.956;2023-08-21T11:24:31;29.30;52.00
39045;DHT22;52192;52.002;5.956;2023-08-21T11:27:16;29.40;50.80
39045;DHT22;52192;52.002;5.956;2023-08-21T11:29:44;29.50;50.90
39045;DHT22;52192;52.002;5.956;2023-08-21T11:32:10;29.50;50.20
39045;DHT22;52192;52.002;5.956;2023-08-21T11:34:36;29.60;50.80
39045;DHT22;52192;52.002;5.956;2023-08-21T11:37:04;29.80;51.10
39045;DHT22;52192;52.002;5.956;2023-08-21T11:39:53;30.00;50.60
39045;DHT22;52192;52.002;5.956;2023-08-21T11:42:32;30.20;49.70
39045;DHT22;52192;52.002;5.956;2023-08-21T11:44:59;30.30;49.90
39045;DHT22;52192;52.002;5.956;2023-08-21T11:47:31;30.50;49.50
39045;DHT22;52192;52.002;5.956;2023-08-21T11:49:57;30.60;48.80
39045;DHT22;52192;52.002;5.956;2023-08-21T11:52:29;30.60;49.10
39045;DHT22;52192;52.002;5.956;2023-08-21T11:54:57;30.80;48.90
39045;DHT22;52192;52.002;5.956;2023-08-21T11:57:23;31.10;48.80
39045;DHT22;52192;52.002;5.956;2023-08-21T11:59:53;31.10;47.70
39045;DHT22;52192;52.002;5.956;2023-08-21T12:02:27;31.10;48.30
39045;DHT22;52192;52.002;5.956;2023-08-21T12:05:04;31.10;47.10
39045;DHT22;52192;52.002;5.956;2023-08-21T12:07:31;31.20;47.90
39045;DHT22;52192;52.002;5.956;2023-08-21T12:09:57;31.40;48.10
39045;DHT22;52192;52.002;5.956;2023-08-21T12:12:23;31.60;48.20
39045;DHT22;52192;52.002;5.956;2023-08-21T12:14:49;31.70;47.10
39045;DHT22;52192;52.002;5.956;2023-08-21T12:17:15;31.90;47.60
39045;DHT22;52192;52.002;5.956;2023-08-21T12:19:41;31.90;46.50
39045;DHT22;52192;52.002;5.956;2023-08-21T12:22:07;31.90;44.60
39045;DHT22;52192;52.002;5.956;2023-08-21T12:24:34;31.70;45.20
39045;DHT22;52192;52.002;5.956;2023-08-21T12:26:59;31.70;46.00
39045;DHT22;52192;52.002;5.956;2023-08-21T12:29:25;31.70;45.50
39045;DHT22;52192;52.002;5.956;2023-08-21T12:31:50;31.90;44.50
39045;DHT22;52192;52.002;5.956;2023-08-21T12:34:16;31.90;43.90
39045;DHT22;52192;52.002;5.956;2023-08-21T12:36:42;31.80;44.50
39045;DHT22;52192;52.002;5.956;2023-08-21T12:39:07;31.70;44.00
39045;DHT22;52192;52.002;5.956;2023-08-21T12:41:34;31.70;44.50
39045;DHT22;52192;52.002;5.956;2023-08-21T12:44:00;31.90;43.80
39045;DHT22;52192;52.002;5.956;2023-08-21T12:46:26;31.90;44.00
39045;DHT22;52192;52.002;5.956;2023-08-21T12:48:53;32.00;44.70
39045;DHT22;52192;52.002;5.956;2023-08-21T12:51:19;32.20;44.40
39045;DHT22;52192;52.002;5.956;2023-08-21T12:53:45;32.40;44.00
39045;DHT22;52192;52.002;5.956;2023-08-21T12:56:11;32.50;42.60
39045;DHT22;52192;52.002;5.956;2023-08-21T12:58:36;32.40;43.00
39045;DHT22;52192;52.002;5.956;2023-08-21T13:01:02;32.40;42.30
39045;DHT22;52192;52.002;5.956;2023-08-21T13:03:29;32.20;43.00
39045;DHT22;52192;52.002;5.956;2023-08-21T13:05:55;32.30;42.90
39045;DHT22;52192;52.002;5.956;2023-08-21T13:08:21;32.40;42.70
39045;DHT22;52192;52.002;5.956;2023-08-21T13:10:47;32.50;42.50
39045;DHT22;52192;52.002;5.956;2023-08-21T13:13:12;32.60;42.90
39045;DHT22;52192;52.002;5.956;2023-08-21T13:15:38;32.60;42.70
39045;DHT22;52192;52.002;5.956;2023-08-21T13:18:04;32.80;43.10
39045;DHT22;52192;52.002;5.956;2023-08-21T13:20:30;32.90;43.00
39045;DHT22;52192;52.002;5.956;2023-08-21T13:22:55;33.00;41.80
39045;DHT22;52192;52.002;5.956;2023-08-21T13:25:23;33.00;42.50
39045;DHT22;52192;52.002;5.956;2023-08-21T13:27:50;32.90;42.40
39045;DHT22;52192;52.002;5.956;2023-08-21T13:30:16;33.00;42.00
39045;DHT22;52192;52.002;5.956;2023-08-21T13:32:43;32.80;42.30
39045;DHT22;52192;52.002;5.956;2023-08-21T13:35:09;32.80;42.30
39045;DHT22;52192;52.002;5.956;2023-08-21T13:37:35;32.60;42.50
39045;DHT22;52192;52.002;5.956;2023-08-21T13:40:02;32.70;43.10
39045;DHT22;52192;52.002;5.956;2023-08-21T13:42:37;32.90;43.20
39045;DHT22;52192;52.002;5.956;2023-08-21T13:45:09;33.20;43.20
39045;DHT22;52192;52.002;5.956;2023-08-21T13:47:42;33.30;42.10
39045;DHT22;52192;52.002;5.956;2023-08-21T13:50:08;33.30;42.50
39045;DHT22;52192;52.002;5.956;2023-08-21T13:52:35;33.10;41.90
39045;DHT22;52192;52.002;5.956;2023-08-21T13:55:01;32.80;42.50
39045;DHT22;52192;52.002;5.956;2023-08-21T13:57:28;32.70;42.20
39045;DHT22;52192;52.002;5.956;2023-08-21T13:59:54;32.80;42.80
39045;DHT22;52192;52.002;5.956;2023-08-21T14:02:19;33.00;42.70
39045;DHT22;52192;52.002;5.956;2023-08-21T14:04:46;33.20;41.90
39045;DHT22;52192;52.002;5.956;2023-08-21T14:07:12;33.30;41.40
39045;DHT22;52192;52.002;5.956;2023-08-21T14:09:38;33.20;41.40
39045;DHT22;52192;52.002;5.956;2023-08-21T14:12:04;33.30;41.20
39045;DHT22;52192;52.002;5.956;2023-08-21T14:14:32;33.30;39.50
39045;DHT22;52192;52.002;5.956;2023-08-21T14:16:58;33.30;39.60
39045;DHT22;52192;52.002;5.956;2023-08-21T14:19:24;33.40;39.30
39045;DHT22;52192;52.002;5.956;2023-08-21T14:21:49;33.30;38.60
39045;DHT22;52192;52.002;5.956;2023-08-21T14:24:15;33.10;39.40
39045;DHT22;52192;52.002;5.956;2023-08-21T14:26:42;33.10;38.70
39045;DHT22;52192;52.002;5.956;2023-08-21T14:29:07;33.00;39.30
39045;DHT22;52192;52.002;5.956;2023-08-21T14:31:33;33.00;39.10
39045;DHT22;52192;52.002;5.956;2023-08-21T14:33:59;33.10;38.40
39045;DHT22;52192;52.002;5.956;2023-08-21T14:36:25;33.20;38.60
39045;DHT22;52192;52.002;5.956;2023-08-21T14:38:50;33.20;37.90
39045;DHT22;52192;52.002;5.956;2023-08-21T14:41:17;33.20;38.30
39045;DHT22;52192;52.002;5.956;2023-08-21T14:43:43;33.20;38.50
39045;DHT22;52192;52.002;5.956;2023-08-21T14:46:09;33.20;37.90
39045;DHT22;52192;52.002;5.956;2023-08-21T14:48:36;33.10;38.00
39045;DHT22;52192;52.002;5.956;2023-08-21T14:51:02;33.20;38.20
39045;DHT22;52192;52.002;5.956;2023-08-21T14:53:27;33.30;38.50
39045;DHT22;52192;52.002;5.956;2023-08-21T14:55:53;33.30;38.20
39045;DHT22;52192;52.002;5.956;2023-08-21T14:58:19;33.40;38.00
39045;DHT22;52192;52.002;5.956;2023-08-21T15:00:44;33.60;38.00
39045;DHT22;52192;52.002;5.956;2023-08-21T15:03:10;33.60;38.10
39045;DHT22;52192;52.002;5.956;2023-08-21T15:05:36;33.60;37.70
39045;DHT22;52192;52.002;5.956;2023-08-21T15:08:01;33.50;37.80
39045;DHT22;52192;52.002;5.956;2023-08-21T15:10:27;33.50;38.30
39045;DHT22;52192;52.002;5.956;2023-08-21T15:12:53;33.60;39.20
39045;DHT22;52192;52.002;5.956;2023-08-21T15:15:20;33.70;39.40
39045;DHT22;52192;52.002;5.956;2023-08-21T15:17:48;33.70;39.10
39045;DHT22;52192;52.002;5.956;2023-08-21T15:20:14;33.70;38.90
39045;DHT22;52192;52.002;5.956;2023-08-21T15:22:41;33.60;38.90
39045;DHT22;52192;52.002;5.956;2023-08-21T15:25:08;33.60;39.00
39045;DHT22;52192;52.002;5.956;2023-08-21T15:27:35;33.40;37.90
39045;DHT22;52192;52.002;5.956;2023-08-21T15:30:01;33.20;38.50
39045;DHT22;52192;52.002;5.956;2023-08-21T15:32:27;33.20;39.70
39045;DHT22;52192;52.002;5.956;2023-08-21T15:34:52;33.30;39.50
39045;DHT22;52192;52.002;5.956;2023-08-21T15:37:18;33.40;38.40